createdAt,value
2022-08-31T00:00:31.426Z,23.37
2022-08-31T00:03:17.377Z,23.47
2022-08-31T00:05:44.697Z,22.75
2022-08-31T00:08:11.598Z,23.10
2022-08-31T00:10:41.371Z,22.73
2022-08-31T00:13:10.154Z,22.43
2022-08-31T00:15:37.036Z,22.07
2022-08-31T00:18:04.793Z,22.54
2022-08-31T00:20:33.822Z,21.90
2022-08-31T00:23:07.237Z,22.68
2022-08-31T00:25:35.712Z,21.45
2022-08-31T00:28:03.515Z,21.89
2022-08-31T00:30:31.510Z,23.35
2022-08-31T00:32:58.811Z,20.87
2022-08-31T00:35:28.046Z,19.96
2022-08-31T00:37:55.378Z,22.22
2022-08-31T00:40:22.399Z,21.17
2022-08-31T00:42:49.465Z,20.70
2022-08-31T00:45:16.410Z,20.90
2022-08-31T00:47:43.178Z,21.05
2022-08-31T00:50:14.577Z,19.04
2022-08-31T00:52:46.590Z,20.80
2022-08-31T00:55:18.022Z,21.77
2022-08-31T00:57:48.025Z,23.86
2022-08-31T01:00:19.619Z,22.81
2022-08-31T01:02:47.619Z,20.71
2022-08-31T01:05:15.864Z,21.96
2022-08-31T01:07:47.753Z,20.44
2022-08-31T01:10:19.668Z,21.43
2022-08-31T01:12:50.544Z,21.95
2022-08-31T01:15:18.163Z,22.56
2022-08-31T01:17:48.626Z,23.04
2022-08-31T01:20:15.583Z,22.81
2022-08-31T01:23:23.870Z,21.77
2022-08-31T01:25:52.499Z,21.09
2022-08-31T01:28:19.331Z,21.25
2022-08-31T01:30:59.342Z,21.47
2022-08-31T01:33:26.855Z,21.06
2022-08-31T01:35:54.069Z,21.17
2022-08-31T01:38:22.090Z,22.63
2022-08-31T01:40:54.694Z,21.55
2022-08-31T01:43:21.848Z,22.12
2022-08-31T01:45:49.783Z,22.42
2022-08-31T01:48:17.811Z,21.98
2022-08-31T01:50:46.854Z,21.72
2022-08-31T01:53:13.895Z,21.76
2022-08-31T01:55:41.732Z,21.89
2022-08-31T01:58:09.466Z,21.98
2022-08-31T02:01:03.388Z,21.74
2022-08-31T02:03:42.655Z,21.54
2022-08-31T02:06:11.891Z,21.27
2022-08-31T02:08:39.522Z,21.66
2022-08-31T02:11:07.838Z,21.65
2022-08-31T02:13:35.907Z,21.01
2022-08-31T02:16:03.594Z,21.08
2022-08-31T02:18:34.288Z,22.12
2022-08-31T02:21:01.103Z,22.20
2022-08-31T02:23:27.978Z,21.89
2022-08-31T02:25:55.806Z,21.92
2022-08-31T02:28:23.499Z,21.91
2022-08-31T02:30:52.198Z,21.70
2022-08-31T02:33:19.374Z,21.82
2022-08-31T02:35:46.310Z,21.51
2022-08-31T02:38:19.625Z,22.24
2022-08-31T02:40:50.228Z,21.87
2022-08-31T02:43:24.360Z,22.24
2022-08-31T02:45:53.919Z,21.93
2022-08-31T02:48:25.930Z,22.21
2022-08-31T02:50:53.667Z,22.62
2022-08-31T02:53:23.023Z,22.19
2022-08-31T02:55:50.425Z,22.63
2022-08-31T02:58:21.964Z,22.81
2022-08-31T03:00:51.703Z,21.68
2022-08-31T03:03:19.727Z,22.59
2022-08-31T03:05:46.678Z,22.37
2022-08-31T03:08:13.923Z,22.00
2022-08-31T03:10:41.901Z,20.72
2022-08-31T03:13:08.681Z,21.83
2022-08-31T03:15:35.685Z,21.50
2022-08-31T03:18:06.756Z,22.17
2022-08-31T03:20:34.938Z,22.05
2022-08-31T03:23:02.052Z,21.96
2022-08-31T03:25:31.231Z,22.52
2022-08-31T03:27:58.664Z,22.38
2022-08-31T03:30:27.598Z,22.34
2022-08-31T03:33:05.189Z,22.45
2022-08-31T03:35:33.388Z,21.16
2022-08-31T03:38:02.696Z,21.69
2022-08-31T03:40:30.640Z,21.46
2022-08-31T03:43:00.642Z,22.25
2022-08-31T03:45:28.994Z,22.42
2022-08-31T03:47:55.982Z,22.35
2022-08-31T03:50:25.689Z,22.47
2022-08-31T03:53:05.394Z,22.78
2022-08-31T03:55:33.997Z,22.68
2022-08-31T03:58:00.846Z,22.27
2022-08-31T04:00:28.422Z,21.86
2022-08-31T04:03:01.736Z,22.69
2022-08-31T04:05:34.157Z,21.28
2022-08-31T04:08:20.860Z,21.33
2022-08-31T04:11:14.477Z,21.86
2022-08-31T04:14:00.233Z,21.09
2022-08-31T04:16:45.220Z,21.95
2022-08-31T04:19:35.530Z,21.86
2022-08-31T04:22:15.842Z,21.41
2022-08-31T04:24:59.731Z,22.19
2022-08-31T04:27:26.566Z,22.15
2022-08-31T04:29:53.403Z,21.76
2022-08-31T04:32:21.054Z,21.35
2022-08-31T04:34:47.870Z,22.05
2022-08-31T04:37:21.538Z,22.13
2022-08-31T04:39:50.578Z,22.13
2022-08-31T04:42:18.207Z,21.56
2022-08-31T04:44:45.263Z,21.30
2022-08-31T04:47:12.021Z,21.85
2022-08-31T04:49:39.425Z,21.78
2022-08-31T04:52:06.854Z,22.06
2022-08-31T04:54:35.288Z,22.06
2022-08-31T04:57:02.393Z,21.64
2022-08-31T04:59:32.611Z,22.03
2022-08-31T05:02:28.663Z,21.88
2022-08-31T05:05:10.789Z,21.74
2022-08-31T05:07:39.438Z,22.15
2022-08-31T05:10:07.533Z,21.98
2022-08-31T05:12:34.542Z,22.25
2022-08-31T05:15:01.381Z,21.30
2022-08-31T05:17:28.953Z,21.55
2022-08-31T05:19:55.738Z,22.29
2022-08-31T05:22:23.220Z,21.74
2022-08-31T05:24:52.458Z,21.61
2022-08-31T05:27:19.274Z,21.71
2022-08-31T05:29:46.350Z,21.68
2022-08-31T05:32:31.589Z,22.56
2022-08-31T05:35:01.947Z,22.80
2022-08-31T05:37:28.917Z,22.20
2022-08-31T05:39:55.847Z,22.44
2022-08-31T05:42:22.757Z,22.64
2022-08-31T05:44:49.826Z,22.24
2022-08-31T05:47:17.163Z,22.68
2022-08-31T05:49:45.056Z,22.86
2022-08-31T05:52:16.658Z,22.88
2022-08-31T05:54:43.715Z,22.25
2022-08-31T05:57:10.549Z,22.36
2022-08-31T05:59:39.326Z,22.56
2022-08-31T06:02:09.825Z,23.24
2022-08-31T06:04:36.805Z,23.31
2022-08-31T06:07:03.839Z,23.40
2022-08-31T06:09:44.389Z,22.26
2022-08-31T06:12:15.268Z,22.30
2022-08-31T06:14:45.207Z,23.38
2022-08-31T06:17:17.369Z,23.33
2022-08-31T06:19:44.433Z,23.15
2022-08-31T06:22:11.963Z,23.42
2022-08-31T06:24:38.824Z,22.99
2022-08-31T06:27:07.418Z,23.48
2022-08-31T06:29:36.883Z,23.30
2022-08-31T06:32:08.285Z,23.26
2022-08-31T06:34:39.391Z,23.38
2022-08-31T06:37:07.482Z,23.26
2022-08-31T06:40:10.342Z,23.51
2022-08-31T06:43:00.552Z,23.73
2022-08-31T06:45:52.112Z,22.62
2022-08-31T06:48:39.207Z,23.60
2022-08-31T06:51:08.223Z,24.06
2022-08-31T06:53:37.011Z,24.07
2022-08-31T06:56:05.946Z,23.96
2022-08-31T06:59:16.637Z,24.17
2022-08-31T07:02:03.179Z,23.04
2022-08-31T07:04:37.126Z,23.03
2022-08-31T07:07:06.249Z,22.58
2022-08-31T07:09:34.265Z,22.96
2022-08-31T07:12:01.132Z,23.60
2022-08-31T07:14:28.935Z,22.85
2022-08-31T07:16:58.781Z,22.66
2022-08-31T07:19:26.511Z,23.47
2022-08-31T07:21:56.357Z,23.12
2022-08-31T07:24:27.811Z,23.94
2022-08-31T07:27:02.513Z,23.36
2022-08-31T07:29:42.885Z,23.83
2022-08-31T07:32:14.981Z,23.70
2022-08-31T07:34:44.129Z,22.24
2022-08-31T07:37:50.950Z,21.12
2022-08-31T07:40:41.235Z,23.56
2022-08-31T07:43:10.394Z,23.83
2022-08-31T07:45:39.407Z,23.89
2022-08-31T07:48:07.526Z,23.29
2022-08-31T07:51:06.520Z,22.09
2022-08-31T07:53:54.849Z,22.37
2022-08-31T07:56:34.688Z,23.35
2022-08-31T07:59:18.242Z,23.20
2022-08-31T08:01:47.723Z,23.77
2022-08-31T08:04:25.180Z,23.56
2022-08-31T08:07:12.454Z,23.90
2022-08-31T08:09:57.509Z,23.70
2022-08-31T08:13:05.793Z,24.49
2022-08-31T08:15:57.640Z,23.64
2022-08-31T08:19:00.268Z,23.70
2022-08-31T08:21:29.220Z,23.63
2022-08-31T08:23:56.839Z,22.81
2022-08-31T08:26:45.319Z,24.53
2022-08-31T08:29:24.795Z,24.20
2022-08-31T08:31:56.246Z,23.83
2022-08-31T08:34:32.534Z,23.88
2022-08-31T08:37:01.892Z,23.89
2022-08-31T08:39:29.974Z,23.38
2022-08-31T08:42:17.054Z,24.16
2022-08-31T08:44:44.401Z,24.18
2022-08-31T08:47:19.095Z,24.78
2022-08-31T08:49:56.191Z,24.68
2022-08-31T08:52:29.046Z,24.50
2022-08-31T08:55:02.119Z,22.82
2022-08-31T08:57:39.110Z,23.83
2022-08-31T09:00:16.383Z,23.90
2022-08-31T09:03:01.888Z,23.63
2022-08-31T09:06:03.300Z,24.44
2022-08-31T09:09:18.240Z,25.38
2022-08-31T09:12:31.764Z,24.83
2022-08-31T09:15:36.855Z,25.67
2022-08-31T09:18:18.511Z,25.21
2022-08-31T09:21:05.483Z,24.95
2022-08-31T09:23:38.535Z,24.55
2022-08-31T09:26:08.432Z,25.08
2022-08-31T09:29:04.009Z,25.21
2022-08-31T09:31:38.364Z,24.49
2022-08-31T09:34:24.715Z,24.83
2022-08-31T09:36:54.406Z,24.57
2022-08-31T09:39:31.299Z,24.41
2022-08-31T09:42:14.714Z,23.93
2022-08-31T09:44:43.349Z,25.97
2022-08-31T09:47:43.124Z,26.25
2022-08-31T09:50:11.226Z,26.15
2022-08-31T09:52:58.873Z,23.78
2022-08-31T09:55:28.067Z,25.17
2022-08-31T09:58:01.331Z,25.66
2022-08-31T10:00:34.535Z,25.58
2022-08-31T10:03:19.117Z,23.80
2022-08-31T10:05:48.756Z,24.37
2022-08-31T10:08:57.987Z,23.35
2022-08-31T10:11:30.112Z,23.52
2022-08-31T10:14:06.317Z,24.17
2022-08-31T10:16:38.564Z,22.35
2022-08-31T10:19:09.999Z,23.31
2022-08-31T10:21:53.985Z,24.86
2022-08-31T10:24:56.029Z,25.22
2022-08-31T10:27:33.136Z,23.33
2022-08-31T10:30:28.027Z,25.21
2022-08-31T10:33:01.371Z,25.37
2022-08-31T10:35:55.155Z,25.50
2022-08-31T10:38:34.943Z,25.88
2022-08-31T10:41:16.868Z,25.47
2022-08-31T10:44:18.038Z,25.46
2022-08-31T10:46:45.792Z,25.57
2022-08-31T10:49:12.751Z,25.00
2022-08-31T10:51:56.614Z,23.04
2022-08-31T10:55:05.504Z,24.63
2022-08-31T10:58:11.898Z,22.69
2022-08-31T11:00:55.308Z,23.68
2022-08-31T11:03:32.043Z,23.28
2022-08-31T11:06:06.231Z,20.85
2022-08-31T11:08:57.600Z,20.56
2022-08-31T11:11:42.532Z,22.45
2022-08-31T11:14:22.433Z,21.41
2022-08-31T11:17:12.106Z,23.81
2022-08-31T11:19:54.564Z,22.51
2022-08-31T11:22:45.163Z,20.65
2022-08-31T11:25:53.945Z,22.22
2022-08-31T11:28:34.157Z,23.15
2022-08-31T11:31:24.282Z,22.23
2022-08-31T11:34:17.444Z,22.16
2022-08-31T11:36:57.431Z,23.05
2022-08-31T11:39:31.150Z,23.56
2022-08-31T11:41:59.169Z,23.94
2022-08-31T11:44:29.865Z,22.76
2022-08-31T11:47:05.907Z,24.20
2022-08-31T11:49:40.472Z,23.75
2022-08-31T11:52:14.630Z,25.15
2022-08-31T11:54:46.737Z,23.60
2022-08-31T11:57:18.237Z,24.24
2022-08-31T11:59:46.994Z,23.39
2022-08-31T12:02:19.596Z,24.32
2022-08-31T12:04:47.498Z,23.92
2022-08-31T12:07:19.000Z,24.73
2022-08-31T12:09:52.154Z,23.68
2022-08-31T12:12:48.459Z,24.39
2022-08-31T12:15:34.070Z,25.70
2022-08-31T12:18:30.863Z,22.93
2022-08-31T12:21:31.386Z,24.33
2022-08-31T12:24:08.613Z,24.71
2022-08-31T12:26:46.860Z,25.33
2022-08-31T12:29:28.034Z,23.37
2022-08-31T12:32:10.717Z,24.19
2022-08-31T12:34:44.599Z,24.29
2022-08-31T12:37:24.820Z,24.15
2022-08-31T12:40:13.515Z,24.00
2022-08-31T12:42:55.197Z,23.39
2022-08-31T12:45:37.888Z,22.76
2022-08-31T12:48:35.750Z,24.81
2022-08-31T12:51:24.699Z,25.18
2022-08-31T12:54:08.632Z,25.12
2022-08-31T12:56:51.959Z,25.62
2022-08-31T13:00:01.265Z,24.51
2022-08-31T13:02:33.324Z,25.72
2022-08-31T13:05:03.018Z,25.56
2022-08-31T13:07:35.425Z,25.04
2022-08-31T13:10:06.901Z,24.38
2022-08-31T13:12:33.757Z,25.64
2022-08-31T13:15:00.650Z,25.78
2022-08-31T13:17:34.027Z,24.30
2022-08-31T13:20:03.058Z,24.18
2022-08-31T13:22:29.960Z,23.93
2022-08-31T13:25:13.171Z,23.66
2022-08-31T13:27:50.514Z,26.64
2022-08-31T13:30:22.442Z,23.61
2022-08-31T13:32:55.035Z,25.62
2022-08-31T13:35:31.748Z,23.58
2022-08-31T13:38:07.965Z,24.27
2022-08-31T13:40:39.508Z,25.29
2022-08-31T13:43:09.312Z,22.32
2022-08-31T13:45:39.379Z,22.28
2022-08-31T13:48:11.482Z,23.83
2022-08-31T13:50:53.819Z,24.66
2022-08-31T13:53:39.638Z,24.83
2022-08-31T13:56:47.450Z,22.56
2022-08-31T13:59:23.785Z,23.51
2022-08-31T14:01:59.116Z,24.02
2022-08-31T14:04:39.174Z,24.07
2022-08-31T14:07:06.187Z,24.04
2022-08-31T14:09:33.185Z,21.97
2022-08-31T14:12:03.700Z,23.58
2022-08-31T14:14:41.456Z,23.51
2022-08-31T14:17:16.236Z,23.66
2022-08-31T14:19:45.219Z,21.06
2022-08-31T14:22:26.648Z,22.33
2022-08-31T14:24:56.855Z,24.85
2022-08-31T14:27:24.309Z,23.24
2022-08-31T14:29:52.317Z,24.97
2022-08-31T14:32:22.272Z,24.79
2022-08-31T14:34:51.078Z,24.80
2022-08-31T14:37:23.216Z,24.81
2022-08-31T14:40:05.522Z,24.32
2022-08-31T14:42:37.521Z,22.59
2022-08-31T14:45:18.583Z,24.71
2022-08-31T14:47:52.260Z,23.85
2022-08-31T14:50:23.473Z,25.36
2022-08-31T14:52:55.716Z,24.47
2022-08-31T14:55:25.832Z,24.31
2022-08-31T14:57:59.379Z,25.19
2022-08-31T15:00:31.691Z,23.86
2022-08-31T15:02:59.784Z,23.79
2022-08-31T15:05:26.778Z,23.35
2022-08-31T15:07:54.972Z,23.91
2022-08-31T15:10:25.919Z,23.41
2022-08-31T15:12:53.787Z,20.67
2022-08-31T15:15:21.169Z,22.99
2022-08-31T15:17:51.669Z,21.97
2022-08-31T15:20:22.774Z,21.76
2022-08-31T15:22:50.091Z,23.29
2022-08-31T15:25:19.025Z,24.62
2022-08-31T15:27:46.642Z,21.16
2022-08-31T15:30:17.451Z,23.36
2022-08-31T15:32:46.833Z,23.76
2022-08-31T15:35:18.387Z,23.41
2022-08-31T15:37:53.127Z,22.46
2022-08-31T15:40:23.637Z,23.36
2022-08-31T15:42:51.005Z,23.60
2022-08-31T15:45:18.098Z,23.96
2022-08-31T15:48:03.530Z,23.65
2022-08-31T15:50:32.031Z,23.12
2022-08-31T15:53:09.611Z,23.49
2022-08-31T15:55:41.067Z,24.96
2022-08-31T15:58:09.520Z,24.75
2022-08-31T16:00:37.417Z,22.10
2022-08-31T16:03:06.184Z,23.27
2022-08-31T16:05:39.524Z,22.03
2022-08-31T16:08:10.376Z,22.07
2022-08-31T16:10:41.922Z,22.69
2022-08-31T16:13:09.783Z,22.34
2022-08-31T16:15:38.156Z,22.83
2022-08-31T16:18:06.062Z,24.75
2022-08-31T16:20:34.681Z,24.65
2022-08-31T16:23:01.651Z,25.27
2022-08-31T16:25:30.485Z,24.05
2022-08-31T16:28:14.712Z,24.28
2022-08-31T16:30:43.787Z,25.25
2022-08-31T16:33:12.097Z,24.37
2022-08-31T16:35:39.634Z,24.43
2022-08-31T16:38:07.240Z,24.24
2022-08-31T16:40:35.554Z,23.26
2022-08-31T16:43:03.331Z,24.31
2022-08-31T16:45:30.481Z,24.04
2022-08-31T16:48:15.959Z,23.76
2022-08-31T16:50:47.657Z,23.10
2022-08-31T16:53:18.000Z,22.57
2022-08-31T16:55:47.888Z,22.66
2022-08-31T16:58:25.055Z,23.11
2022-08-31T17:01:03.745Z,23.66
2022-08-31T17:03:30.591Z,23.09
2022-08-31T17:05:57.742Z,22.49
2022-08-31T17:08:24.549Z,22.94
2022-08-31T17:10:51.536Z,23.14
2022-08-31T17:13:18.576Z,23.37
2022-08-31T17:15:45.422Z,19.41
2022-08-31T17:18:12.543Z,22.71
2022-08-31T17:20:40.950Z,23.71
2022-08-31T17:23:10.291Z,24.64
2022-08-31T17:25:37.169Z,23.40
2022-08-31T17:28:17.963Z,20.80
2022-08-31T17:30:44.876Z,23.35
2022-08-31T17:33:12.652Z,22.98
2022-08-31T17:35:42.206Z,23.53
2022-08-31T17:38:09.003Z,22.97
2022-08-31T17:40:35.846Z,24.77
2022-08-31T17:43:02.803Z,23.47
2022-08-31T17:45:29.638Z,22.90
2022-08-31T17:47:56.645Z,22.53
2022-08-31T17:50:23.622Z,20.59
2022-08-31T17:52:50.761Z,22.88
2022-08-31T17:55:17.646Z,22.77
2022-08-31T17:57:45.364Z,23.01
2022-08-31T18:00:14.819Z,22.43
2022-08-31T18:02:41.774Z,23.54
2022-08-31T18:05:11.720Z,21.47
2022-08-31T18:07:41.006Z,22.53
2022-08-31T18:10:09.445Z,22.70
2022-08-31T18:12:41.399Z,18.98
2022-08-31T18:15:13.895Z,22.15
2022-08-31T18:17:40.808Z,22.83
2022-08-31T18:20:08.695Z,22.84
2022-08-31T18:22:35.646Z,23.59
2022-08-31T18:25:02.561Z,23.72
2022-08-31T18:27:29.420Z,22.67
2022-08-31T18:29:58.561Z,22.19
2022-08-31T18:32:27.610Z,23.19
2022-08-31T18:34:57.470Z,22.99
2022-08-31T18:37:25.720Z,23.92
2022-08-31T18:40:11.554Z,23.48
2022-08-31T18:42:57.461Z,23.13
2022-08-31T18:45:25.784Z,23.35
2022-08-31T18:48:23.413Z,22.74
2022-08-31T18:50:46.931Z,23.04
2022-08-31T18:53:27.776Z,24.10
2022-08-31T18:56:10.352Z,23.08
2022-08-31T18:58:38.423Z,23.33
2022-08-31T19:01:07.526Z,23.35
2022-08-31T19:03:34.491Z,23.04
2022-08-31T19:06:01.861Z,24.22
2022-08-31T19:08:29.307Z,23.32
2022-08-31T19:10:58.265Z,23.19
2022-08-31T19:13:29.907Z,22.21
2022-08-31T19:16:01.496Z,22.35
2022-08-31T19:18:30.551Z,22.43
2022-08-31T19:20:57.592Z,23.68
2022-08-31T19:23:24.901Z,23.96
2022-08-31T19:25:52.927Z,22.32
2022-08-31T19:28:19.783Z,23.22
2022-08-31T19:30:50.341Z,23.11
2022-08-31T19:33:18.902Z,23.18
2022-08-31T19:35:45.760Z,23.93
2022-08-31T19:38:14.414Z,23.69
2022-08-31T19:40:41.373Z,22.42
2022-08-31T19:45:55.207Z,23.07
2022-08-31T19:48:23.816Z,22.86
2022-08-31T19:50:51.923Z,22.81
2022-08-31T19:53:21.953Z,22.30
2022-08-31T19:55:53.632Z,21.99
2022-08-31T19:58:26.539Z,23.57
2022-08-31T20:01:00.791Z,22.35
2022-08-31T20:03:28.673Z,22.70
2022-08-31T20:05:56.303Z,23.19
2022-08-31T20:08:23.076Z,22.91
2022-08-31T20:10:49.809Z,22.41
2022-08-31T20:13:21.668Z,22.43
2022-08-31T20:15:48.566Z,24.05
2022-08-31T20:18:15.426Z,23.25
2022-08-31T20:20:46.026Z,22.80
2022-08-31T20:23:16.879Z,22.90
2022-08-31T20:25:46.849Z,23.04
2022-08-31T20:28:16.201Z,22.75
2022-08-31T20:30:44.173Z,23.00
2022-08-31T20:33:11.844Z,19.78
2022-08-31T20:35:47.778Z,23.67
2022-08-31T20:38:17.103Z,23.93
2022-08-31T20:40:47.173Z,22.87
2022-08-31T20:43:15.062Z,22.31
2022-08-31T20:45:42.371Z,23.46
2022-08-31T20:48:29.003Z,22.60
2022-08-31T20:50:56.810Z,21.38
2022-08-31T20:53:42.596Z,21.97
2022-08-31T20:56:17.710Z,23.19
2022-08-31T20:58:46.134Z,23.65
2022-08-31T21:01:14.353Z,22.37
2022-08-31T21:03:41.718Z,22.34
2022-08-31T21:06:11.586Z,22.56
2022-08-31T21:08:42.532Z,22.13
2022-08-31T21:11:17.662Z,23.70
2022-08-31T21:13:46.577Z,22.05
2022-08-31T21:16:14.656Z,20.56
2022-08-31T21:18:41.577Z,21.92
2022-08-31T21:21:17.704Z,21.47
2022-08-31T21:23:46.282Z,23.30
2022-08-31T21:26:26.073Z,21.17
2022-08-31T21:28:55.182Z,23.76
2022-08-31T21:31:28.736Z,22.01
2022-08-31T21:34:02.217Z,18.80
2022-08-31T21:36:32.811Z,20.69
2022-08-31T21:39:00.718Z,19.61
2022-08-31T21:41:29.436Z,20.82
2022-08-31T21:43:59.490Z,20.32
2022-08-31T21:46:28.502Z,22.74
2022-08-31T21:48:58.415Z,22.85
2022-08-31T21:51:28.390Z,22.96
2022-08-31T21:54:01.458Z,21.01
2022-08-31T21:56:31.426Z,21.83
2022-08-31T21:58:59.582Z,20.37
2022-08-31T22:01:27.823Z,21.13
2022-08-31T22:03:59.588Z,21.95
2022-08-31T22:06:31.080Z,19.87
2022-08-31T22:09:01.565Z,19.91
2022-08-31T22:11:32.018Z,21.92
2022-08-31T22:13:59.711Z,20.01
2022-08-31T22:16:27.754Z,21.51
2022-08-31T22:19:02.183Z,21.30
2022-08-31T22:21:34.635Z,21.70
2022-08-31T22:24:05.049Z,22.22
2022-08-31T22:26:37.335Z,19.16
2022-08-31T22:29:06.492Z,18.96
2022-08-31T22:31:37.209Z,20.70
2022-08-31T22:34:06.833Z,21.98
2022-08-31T22:36:34.548Z,22.06
2022-08-31T22:39:05.537Z,19.89
2022-08-31T22:41:33.647Z,22.09
2022-08-31T22:44:01.383Z,20.70
2022-08-31T22:46:28.570Z,21.46
2022-08-31T22:48:55.806Z,22.39
2022-08-31T22:51:22.732Z,20.10
2022-08-31T22:53:51.674Z,19.69
2022-08-31T22:56:25.664Z,20.02
2022-08-31T22:58:55.182Z,21.05
2022-08-31T23:01:29.195Z,21.16
2022-08-31T23:03:59.069Z,21.13
2022-08-31T23:06:26.687Z,20.64
2022-08-31T23:08:55.499Z,21.24
2022-08-31T23:11:24.402Z,22.84
2022-08-31T23:13:55.582Z,20.97
2022-08-31T23:16:30.151Z,19.10
2022-08-31T23:19:21.828Z,20.47
2022-08-31T23:21:52.970Z,20.47
2022-08-31T23:24:29.230Z,21.59
2022-08-31T23:27:01.673Z,19.04
2022-08-31T23:29:58.084Z,19.35
2022-08-31T23:32:27.832Z,19.97
2022-08-31T23:34:58.488Z,22.18
2022-08-31T23:37:26.318Z,18.29
2022-08-31T23:39:54.608Z,22.27
2022-08-31T23:42:23.423Z,18.22
2022-08-31T23:44:50.677Z,20.63
2022-08-31T23:47:21.642Z,21.11
2022-08-31T23:49:51.427Z,19.18
2022-08-31T23:52:21.361Z,21.13
2022-08-31T23:54:50.718Z,21.25
2022-08-31T23:57:32.791Z,21.81
